createdAt,value
2023-04-26T00:02:09.788Z,7.87
2023-04-26T00:04:40.225Z,7.88
2023-04-26T00:07:10.366Z,7.84
2023-04-26T00:09:41.927Z,7.76
2023-04-26T00:12:12.397Z,7.74
2023-04-26T00:14:42.196Z,7.77
2023-04-26T00:17:12.189Z,7.84
2023-04-26T00:19:42.227Z,7.84
2023-04-26T00:22:17.892Z,7.83
2023-04-26T00:24:46.376Z,7.81
2023-04-26T00:27:22.550Z,7.79
2023-04-26T00:29:53.327Z,7.86
2023-04-26T00:32:24.317Z,7.77
2023-04-26T00:35:00.600Z,7.67
2023-04-26T00:37:33.145Z,7.62
2023-04-26T00:40:01.656Z,7.65
2023-04-26T00:42:30.379Z,7.67
2023-04-26T00:44:58.903Z,7.67
2023-04-26T00:47:31.688Z,7.68
2023-04-26T00:50:04.241Z,7.64
2023-04-26T00:52:33.761Z,7.67
2023-04-26T00:55:02.223Z,7.64
2023-04-26T00:57:32.001Z,7.67
2023-04-26T01:00:00.431Z,7.70
2023-04-26T01:02:30.262Z,7.69
2023-04-26T01:05:09.521Z,7.70
2023-04-26T01:07:40.389Z,7.70
2023-04-26T01:10:11.773Z,7.79
2023-04-26T01:12:40.851Z,7.68
2023-04-26T01:15:11.619Z,7.69
2023-04-26T01:17:44.936Z,7.69
2023-04-26T01:20:15.614Z,7.79
2023-04-26T01:22:47.105Z,7.69
2023-04-26T01:25:17.635Z,7.67
2023-04-26T01:27:47.116Z,7.74
2023-04-26T01:30:15.753Z,7.69
2023-04-26T01:32:45.282Z,7.73
2023-04-26T01:35:13.824Z,7.73
2023-04-26T01:37:42.726Z,7.71
2023-04-26T01:40:13.772Z,7.67
2023-04-26T01:42:42.384Z,7.71
2023-04-26T01:45:11.915Z,7.71
2023-04-26T01:47:40.578Z,7.74
2023-04-26T01:50:11.190Z,7.68
2023-04-26T01:52:41.142Z,7.66
2023-04-26T01:55:17.918Z,7.67
2023-04-26T01:57:48.705Z,7.70
2023-04-26T02:00:42.154Z,7.66
2023-04-26T02:03:13.087Z,7.67
2023-04-26T02:05:43.280Z,7.69
2023-04-26T02:08:12.175Z,7.69
2023-04-26T02:10:46.830Z,7.69
2023-04-26T02:13:17.538Z,7.68
2023-04-26T02:15:49.333Z,7.69
2023-04-26T02:18:22.167Z,7.74
2023-04-26T02:20:57.993Z,7.72
2023-04-26T02:23:26.803Z,7.75
2023-04-26T02:25:57.001Z,7.70
2023-04-26T02:28:25.866Z,7.69
2023-04-26T02:30:57.067Z,7.70
2023-04-26T02:33:26.366Z,7.67
2023-04-26T02:35:56.055Z,7.67
2023-04-26T02:38:27.607Z,7.67
2023-04-26T02:41:01.568Z,7.68
2023-04-26T02:43:35.816Z,7.69
2023-04-26T02:46:22.786Z,7.63
2023-04-26T02:48:53.251Z,7.64
2023-04-26T02:51:30.678Z,7.61
2023-04-26T02:54:01.504Z,7.67
2023-04-26T02:56:32.015Z,7.63
2023-04-26T02:59:07.320Z,7.66
2023-04-26T03:01:35.928Z,7.64
2023-04-26T03:04:05.698Z,7.60
2023-04-26T03:06:35.584Z,7.56
2023-04-26T03:09:05.972Z,7.58
2023-04-26T03:11:36.104Z,7.59
2023-04-26T03:14:04.611Z,7.61
2023-04-26T03:16:33.268Z,7.62
2023-04-26T03:19:02.410Z,7.59
2023-04-26T03:21:32.309Z,7.60
2023-04-26T03:24:01.118Z,7.59
2023-04-26T03:26:30.765Z,7.60
2023-04-26T03:29:00.999Z,7.62
2023-04-26T03:31:31.813Z,7.63
2023-04-26T03:34:00.444Z,7.66
2023-04-26T03:36:29.993Z,7.64
2023-04-26T03:39:03.354Z,7.66
2023-04-26T03:41:33.597Z,7.64
2023-04-26T03:44:06.362Z,7.62
2023-04-26T03:46:34.712Z,7.61
2023-04-26T03:49:03.321Z,7.61
2023-04-26T03:51:31.954Z,7.56
2023-04-26T03:54:01.649Z,7.54
2023-04-26T03:56:30.368Z,7.54
2023-04-26T03:58:59.848Z,7.47
2023-04-26T04:01:30.154Z,7.49
2023-04-26T04:04:05.037Z,7.50
2023-04-26T04:06:33.851Z,7.48
2023-04-26T04:09:05.782Z,7.49
2023-04-26T04:11:35.139Z,7.48
2023-04-26T04:14:04.497Z,7.49
2023-04-26T04:16:37.088Z,7.47
2023-04-26T04:19:05.704Z,7.46
2023-04-26T04:21:35.461Z,7.47
2023-04-26T04:24:05.884Z,7.43
2023-04-26T04:26:34.598Z,7.42
2023-04-26T04:29:09.296Z,7.40
2023-04-26T04:31:41.928Z,7.36
2023-04-26T04:34:12.077Z,7.35
2023-04-26T04:36:41.039Z,7.34
2023-04-26T04:39:13.903Z,7.33
2023-04-26T04:41:47.907Z,7.31
2023-04-26T04:44:19.824Z,7.32
2023-04-26T04:46:53.069Z,7.31
2023-04-26T04:49:21.659Z,7.30
2023-04-26T04:51:51.414Z,7.27
2023-04-26T04:54:25.830Z,7.26
2023-04-26T04:56:55.378Z,7.24
2023-04-26T04:59:26.349Z,7.26
2023-04-26T05:01:57.590Z,7.23
2023-04-26T05:04:26.445Z,7.25
2023-04-26T05:06:56.920Z,7.25
2023-04-26T05:09:25.580Z,7.25
2023-04-26T05:12:00.376Z,7.25
2023-04-26T05:14:31.613Z,7.29
2023-04-26T05:17:02.770Z,7.31
2023-04-26T05:19:31.308Z,7.26
2023-04-26T05:21:59.754Z,7.30
2023-04-26T05:24:31.694Z,7.32
2023-04-26T05:27:00.188Z,7.33
2023-04-26T05:29:43.098Z,7.36
2023-04-26T05:32:15.314Z,7.37
2023-04-26T05:34:44.824Z,7.36
2023-04-26T05:37:13.399Z,7.41
2023-04-26T05:39:41.931Z,7.46
2023-04-26T05:42:10.693Z,7.49
2023-04-26T05:44:39.420Z,7.52
2023-04-26T05:47:08.050Z,7.54
2023-04-26T05:49:38.521Z,7.58
2023-04-26T05:52:09.349Z,7.57
2023-04-26T05:54:38.071Z,7.59
2023-04-26T05:57:06.646Z,7.57
2023-04-26T05:59:38.099Z,7.57
2023-04-26T06:02:08.165Z,7.62
2023-04-26T06:04:38.283Z,7.60
2023-04-26T06:07:08.484Z,7.59
2023-04-26T06:09:43.224Z,7.62
2023-04-26T06:12:11.917Z,7.63
2023-04-26T06:14:40.209Z,7.60
2023-04-26T06:17:08.933Z,7.57
2023-04-26T06:19:39.281Z,7.52
2023-04-26T06:22:08.875Z,7.52
2023-04-26T06:24:37.472Z,7.52
2023-04-26T06:27:05.763Z,7.53
2023-04-26T06:29:34.988Z,7.56
2023-04-26T06:32:03.896Z,7.58
2023-04-26T06:34:32.220Z,7.62
2023-04-26T06:37:02.603Z,7.71
2023-04-26T06:39:31.162Z,7.75
2023-04-26T06:42:00.295Z,7.79
2023-04-26T06:44:30.982Z,7.86
2023-04-26T06:46:59.758Z,7.91
2023-04-26T06:49:28.146Z,7.98
2023-04-26T06:51:56.785Z,8.06
2023-04-26T06:54:30.119Z,8.17
2023-04-26T06:56:59.442Z,8.22
2023-04-26T06:59:30.025Z,8.35
2023-04-26T07:01:58.935Z,8.46
2023-04-26T07:04:27.844Z,8.49
2023-04-26T07:06:58.049Z,8.55
2023-04-26T07:09:29.005Z,8.59
2023-04-26T07:11:57.458Z,8.67
2023-04-26T07:14:26.836Z,8.71
2023-04-26T07:16:55.598Z,8.83
2023-04-26T07:19:24.387Z,8.91
2023-04-26T07:21:53.154Z,8.99
2023-04-26T07:24:21.911Z,9.04
2023-04-26T07:26:52.991Z,9.14
2023-04-26T07:29:22.575Z,9.34
2023-04-26T07:31:54.778Z,9.42
2023-04-26T07:34:23.660Z,9.61
2023-04-26T07:36:52.517Z,9.67
2023-04-26T07:39:21.177Z,9.92
2023-04-26T07:41:49.881Z,9.96
2023-04-26T07:44:20.070Z,9.95
2023-04-26T07:46:48.520Z,9.99
2023-04-26T07:49:16.949Z,10.09
2023-04-26T07:51:45.891Z,10.01
2023-04-26T07:54:14.273Z,10.12
2023-04-26T07:56:43.442Z,10.12
2023-04-26T07:59:12.268Z,10.17
2023-04-26T08:01:42.508Z,10.28
2023-04-26T08:04:11.728Z,10.23
2023-04-26T08:06:45.122Z,10.38
2023-04-26T08:09:13.634Z,10.49
2023-04-26T08:11:42.267Z,10.54
2023-04-26T08:14:10.984Z,10.57
2023-04-26T08:16:39.551Z,10.69
2023-04-26T08:19:09.723Z,10.72
2023-04-26T08:21:39.177Z,10.83
2023-04-26T08:24:09.029Z,10.96
2023-04-26T08:26:37.514Z,10.85
2023-04-26T08:29:05.813Z,10.98
2023-04-26T08:31:34.656Z,10.97
2023-04-26T08:34:03.229Z,11.04
2023-04-26T08:36:35.267Z,11.15
2023-04-26T08:39:05.638Z,11.30
2023-04-26T08:41:38.779Z,11.07
2023-04-26T08:44:08.928Z,11.28
2023-04-26T08:46:46.236Z,11.13
2023-04-26T08:49:24.458Z,10.97
2023-04-26T08:51:57.004Z,11.14
2023-04-26T08:54:27.955Z,11.14
2023-04-26T08:57:00.743Z,11.08
2023-04-26T08:59:31.564Z,10.88
2023-04-26T09:02:03.204Z,11.17
2023-04-26T09:04:32.038Z,11.29
2023-04-26T09:07:03.545Z,11.47
2023-04-26T09:09:38.377Z,11.54
2023-04-26T09:12:07.108Z,11.62
2023-04-26T09:14:35.717Z,11.74
2023-04-26T09:17:04.121Z,11.88
2023-04-26T09:19:37.970Z,11.79
2023-04-26T09:22:09.143Z,11.90
2023-04-26T09:24:50.729Z,11.82
2023-04-26T09:27:19.413Z,12.07
2023-04-26T09:30:03.420Z,12.08
2023-04-26T09:32:46.050Z,12.22
2023-04-26T09:35:27.322Z,12.10
2023-04-26T09:38:08.610Z,12.24
2023-04-26T09:40:41.188Z,12.24
2023-04-26T09:43:11.805Z,12.23
2023-04-26T09:45:50.704Z,12.26
2023-04-26T09:48:23.076Z,12.49
2023-04-26T09:50:53.804Z,12.66
2023-04-26T09:53:34.650Z,12.56
2023-04-26T09:56:11.780Z,12.39
2023-04-26T09:58:42.351Z,12.38
2023-04-26T10:01:12.647Z,12.39
2023-04-26T10:03:43.201Z,12.05
2023-04-26T10:06:14.160Z,12.08
2023-04-26T10:08:44.777Z,11.83
2023-04-26T10:11:14.367Z,11.54
2023-04-26T10:13:45.168Z,11.45
2023-04-26T10:16:13.628Z,11.60
2023-04-26T10:18:42.336Z,11.54
2023-04-26T10:21:14.767Z,11.68
2023-04-26T10:23:45.612Z,11.76
2023-04-26T10:26:47.343Z,12.09
2023-04-26T10:29:15.808Z,12.24
2023-04-26T10:32:17.168Z,12.39
2023-04-26T10:34:46.186Z,12.05
2023-04-26T10:37:16.336Z,12.59
2023-04-26T10:39:47.619Z,12.84
2023-04-26T10:42:24.212Z,12.94
2023-04-26T10:44:54.782Z,13.67
2023-04-26T10:47:26.917Z,14.06
2023-04-26T10:50:05.694Z,13.57
2023-04-26T10:52:35.409Z,13.34
2023-04-26T10:55:06.596Z,13.53
2023-04-26T10:57:54.535Z,13.61
2023-04-26T11:00:31.998Z,13.50
2023-04-26T11:03:13.116Z,13.67
2023-04-26T11:05:56.913Z,14.02
2023-04-26T11:08:27.646Z,13.59
2023-04-26T11:11:13.798Z,13.07
2023-04-26T11:13:44.845Z,13.28
2023-04-26T11:16:14.681Z,13.45
2023-04-26T11:18:45.487Z,13.88
2023-04-26T11:21:18.366Z,13.48
2023-04-26T11:23:55.970Z,13.82
2023-04-26T11:26:34.531Z,14.18
2023-04-26T11:29:03.820Z,13.81
2023-04-26T11:31:32.390Z,13.92
2023-04-26T11:34:05.655Z,14.33
2023-04-26T11:36:34.485Z,14.34
2023-04-26T11:39:04.580Z,14.66
2023-04-26T11:41:34.619Z,14.47
2023-04-26T11:44:03.167Z,14.43
2023-04-26T11:46:32.394Z,14.03
2023-04-26T11:49:01.772Z,14.74
2023-04-26T11:51:32.211Z,14.30
2023-04-26T11:54:03.803Z,14.07
2023-04-26T11:56:33.906Z,13.74
2023-04-26T11:59:03.195Z,13.87
2023-04-26T12:01:32.044Z,14.00
2023-04-26T12:04:01.615Z,14.30
2023-04-26T12:06:43.019Z,14.30
2023-04-26T12:09:11.841Z,14.67
2023-04-26T12:11:42.100Z,14.50
2023-04-26T12:14:11.929Z,13.76
2023-04-26T12:16:40.560Z,13.27
2023-04-26T12:19:11.655Z,13.07
2023-04-26T12:21:43.976Z,13.16
2023-04-26T12:24:26.107Z,13.26
2023-04-26T12:26:56.408Z,12.64
2023-04-26T12:29:25.406Z,12.54
2023-04-26T12:31:54.170Z,12.57
2023-04-26T12:34:22.828Z,12.67
2023-04-26T12:36:52.213Z,12.87
2023-04-26T12:39:21.087Z,12.63
2023-04-26T12:41:50.216Z,12.90
2023-04-26T12:44:22.067Z,12.77
2023-04-26T12:46:51.405Z,12.79
2023-04-26T12:49:20.609Z,12.58
2023-04-26T12:51:50.027Z,12.68
2023-04-26T12:54:18.466Z,12.52
2023-04-26T12:56:48.456Z,12.52
2023-04-26T12:59:18.032Z,12.90
2023-04-26T13:01:48.250Z,12.96
2023-04-26T13:04:17.565Z,13.02
2023-04-26T13:06:46.345Z,12.92
2023-04-26T13:09:15.413Z,12.65
2023-04-26T13:11:43.825Z,12.93
2023-04-26T13:14:12.211Z,13.24
2023-04-26T13:16:44.062Z,13.35
2023-04-26T13:19:14.819Z,12.98
2023-04-26T13:21:43.809Z,13.42
2023-04-26T13:24:12.496Z,12.94
2023-04-26T13:26:41.040Z,13.28
2023-04-26T13:29:10.284Z,13.41
2023-04-26T13:31:41.035Z,13.79
2023-04-26T13:34:13.293Z,13.73
2023-04-26T13:36:43.422Z,14.03
2023-04-26T13:39:11.914Z,14.09
2023-04-26T13:41:40.481Z,13.64
2023-04-26T13:44:10.002Z,14.05
2023-04-26T13:46:39.152Z,14.31
2023-04-26T13:49:08.588Z,13.95
2023-04-26T13:51:38.182Z,13.54
2023-04-26T13:54:08.557Z,14.38
2023-04-26T13:56:37.291Z,14.89
2023-04-26T13:59:08.151Z,15.08
2023-04-26T14:01:37.883Z,15.54
2023-04-26T14:04:07.700Z,15.28
2023-04-26T14:06:36.603Z,16.04
2023-04-26T14:09:07.131Z,16.38
2023-04-26T14:11:37.578Z,16.96
2023-04-26T14:14:06.650Z,17.11
2023-04-26T14:16:35.566Z,17.25
2023-04-26T14:19:05.433Z,16.67
2023-04-26T14:21:33.788Z,16.99
2023-04-26T14:24:02.576Z,17.05
2023-04-26T14:26:31.731Z,17.53
2023-04-26T14:29:02.488Z,17.66
2023-04-26T14:31:33.041Z,17.04
2023-04-26T14:34:01.962Z,17.49
2023-04-26T14:36:30.560Z,17.22
2023-04-26T14:38:59.053Z,17.79
2023-04-26T14:41:30.014Z,18.18
2023-04-26T14:43:58.462Z,18.46
2023-04-26T14:46:29.130Z,19.01
2023-04-26T14:48:57.553Z,19.38
2023-04-26T14:51:26.464Z,18.87
2023-04-26T14:53:55.237Z,19.70
2023-04-26T14:56:24.276Z,18.60
2023-04-26T14:58:55.560Z,17.61
2023-04-26T15:01:23.980Z,18.41
2023-04-26T15:03:54.324Z,19.08
2023-04-26T15:06:24.102Z,19.87
2023-04-26T15:08:52.920Z,18.46
2023-04-26T15:11:21.552Z,18.63
2023-04-26T15:13:50.719Z,19.40
2023-04-26T15:16:20.072Z,18.50
2023-04-26T15:18:48.588Z,19.84
2023-04-26T15:21:22.607Z,20.10
2023-04-26T15:23:51.362Z,18.27
2023-04-26T15:26:20.048Z,18.36
2023-04-26T15:28:48.849Z,18.58
2023-04-26T15:31:18.615Z,18.23
2023-04-26T15:33:47.301Z,16.76
2023-04-26T15:36:16.557Z,17.68
2023-04-26T15:38:48.745Z,18.10
2023-04-26T15:41:17.254Z,18.64
2023-04-26T15:43:46.338Z,18.45
2023-04-26T15:46:16.166Z,18.61
2023-04-26T15:48:44.760Z,19.85
2023-04-26T15:51:13.398Z,19.88
2023-04-26T15:53:44.150Z,18.95
2023-04-26T15:56:18.549Z,18.82
2023-04-26T15:58:47.428Z,18.75
2023-04-26T16:01:16.337Z,17.33
2023-04-26T16:03:47.433Z,18.36
2023-04-26T16:06:16.638Z,19.16
2023-04-26T16:08:46.169Z,17.31
2023-04-26T16:11:14.663Z,16.71
2023-04-26T16:13:44.909Z,17.36
2023-04-26T16:16:14.025Z,17.46
2023-04-26T16:18:44.414Z,17.90
2023-04-26T16:21:13.768Z,17.83
2023-04-26T16:23:43.053Z,19.13
2023-04-26T16:26:12.339Z,18.79
2023-04-26T16:28:41.232Z,19.27
2023-04-26T16:31:12.271Z,18.47
2023-04-26T16:33:40.780Z,20.96
2023-04-26T16:36:11.508Z,19.56
2023-04-26T16:38:40.041Z,18.61
2023-04-26T16:41:09.586Z,19.19
2023-04-26T16:43:38.334Z,17.64
2023-04-26T16:46:14.536Z,18.08
2023-04-26T16:48:44.011Z,19.14
2023-04-26T16:51:13.180Z,20.25
2023-04-26T16:53:41.745Z,19.28
2023-04-26T16:56:13.839Z,19.89
2023-04-26T16:58:50.900Z,19.32
2023-04-26T17:01:22.932Z,18.45
2023-04-26T17:03:52.244Z,18.24
2023-04-26T17:06:21.223Z,19.62
2023-04-26T17:08:50.337Z,19.69
2023-04-26T17:11:19.940Z,18.65
2023-04-26T17:13:48.737Z,19.22
2023-04-26T17:16:17.196Z,19.63
2023-04-26T17:18:48.871Z,18.15
2023-04-26T17:21:18.709Z,20.17
2023-04-26T17:23:47.368Z,20.36
2023-04-26T17:26:18.254Z,21.47
2023-04-26T17:28:47.182Z,19.63
2023-04-26T17:31:15.586Z,18.87
2023-04-26T17:33:44.320Z,18.25
2023-04-26T17:36:15.561Z,17.45
2023-04-26T17:38:50.148Z,17.38
2023-04-26T17:41:18.770Z,18.73
2023-04-26T17:43:47.443Z,18.01
2023-04-26T17:46:16.002Z,17.44
2023-04-26T17:48:44.630Z,18.62
2023-04-26T17:51:14.634Z,18.75
2023-04-26T17:53:43.072Z,17.68
2023-04-26T17:56:18.771Z,17.35
2023-04-26T17:58:47.141Z,18.96
2023-04-26T18:01:16.184Z,18.90
2023-04-26T18:03:44.921Z,18.38
2023-04-26T18:06:15.240Z,17.76
2023-04-26T18:08:44.051Z,17.62
2023-04-26T18:11:16.218Z,17.27
2023-04-26T18:13:44.492Z,17.34
2023-04-26T18:16:15.197Z,18.69
2023-04-26T18:18:43.568Z,18.33
2023-04-26T18:21:14.473Z,18.71
2023-04-26T18:23:43.477Z,16.59
2023-04-26T18:26:12.168Z,16.29
2023-04-26T18:28:41.046Z,16.33
2023-04-26T18:31:12.334Z,16.08
2023-04-26T18:33:44.093Z,16.10
2023-04-26T18:36:12.665Z,15.33
2023-04-26T18:38:42.589Z,14.91
2023-04-26T18:41:13.557Z,14.71
2023-04-26T18:43:42.048Z,13.98
2023-04-26T18:46:10.316Z,13.85
2023-04-26T18:48:39.118Z,14.57
2023-04-26T18:51:07.726Z,13.56
2023-04-26T18:53:36.304Z,12.66
2023-04-26T18:56:06.801Z,11.94
2023-04-26T18:58:36.385Z,11.74
2023-04-26T19:01:05.187Z,11.77
2023-04-26T19:03:33.775Z,11.24
2023-04-26T19:06:02.574Z,10.98
2023-04-26T19:08:31.283Z,11.00
2023-04-26T19:10:59.709Z,10.85
2023-04-26T19:13:29.636Z,10.62
2023-04-26T19:15:58.148Z,10.45
2023-04-26T19:18:27.294Z,10.49
2023-04-26T19:20:56.101Z,10.59
2023-04-26T19:23:24.567Z,10.61
2023-04-26T19:25:52.904Z,10.63
2023-04-26T19:28:21.538Z,10.61
2023-04-26T19:30:51.574Z,10.77
2023-04-26T19:33:20.129Z,10.72
2023-04-26T19:35:48.455Z,10.54
2023-04-26T19:38:17.940Z,10.34
2023-04-26T19:40:46.843Z,10.49
2023-04-26T19:43:17.414Z,10.51
2023-04-26T19:45:45.791Z,10.33
2023-04-26T19:48:15.522Z,10.24
2023-04-26T19:50:45.258Z,10.27
2023-04-26T19:53:14.118Z,10.39
2023-04-26T19:55:44.256Z,10.53
2023-04-26T19:58:12.974Z,10.60
2023-04-26T20:00:41.707Z,10.45
2023-04-26T20:03:10.397Z,10.53
2023-04-26T20:05:40.634Z,10.57
2023-04-26T20:08:09.496Z,10.25
2023-04-26T20:10:37.947Z,10.36
2023-04-26T20:13:06.243Z,10.27
2023-04-26T20:15:34.867Z,10.36
2023-04-26T20:18:04.882Z,10.06
2023-04-26T20:20:33.837Z,10.18
2023-04-26T20:23:04.418Z,10.30
2023-04-26T20:25:36.964Z,10.52
2023-04-26T20:28:05.865Z,10.34
2023-04-26T20:30:35.828Z,10.45
2023-04-26T20:33:04.574Z,10.26
2023-04-26T20:35:33.423Z,10.60
2023-04-26T20:38:01.758Z,10.45
2023-04-26T20:40:32.063Z,10.27
2023-04-26T20:43:01.201Z,10.40
2023-04-26T20:45:29.753Z,10.30
2023-04-26T20:47:59.286Z,10.32
2023-04-26T20:50:28.859Z,10.50
2023-04-26T20:52:59.306Z,10.77
2023-04-26T20:55:27.822Z,10.81
2023-04-26T20:57:57.566Z,10.50
2023-04-26T21:00:30.842Z,10.41
2023-04-26T21:03:00.528Z,10.66
2023-04-26T21:05:29.267Z,10.31
2023-04-26T21:07:57.802Z,10.48
2023-04-26T21:10:28.618Z,10.47
2023-04-26T21:12:59.394Z,10.49
2023-04-26T21:15:27.949Z,10.72
2023-04-26T21:17:57.584Z,10.71
2023-04-26T21:20:25.995Z,10.83
2023-04-26T21:22:55.336Z,10.76
2023-04-26T21:25:36.386Z,10.46
2023-04-26T21:28:07.397Z,10.45
2023-04-26T21:30:36.855Z,10.48
2023-04-26T21:33:05.528Z,10.57
2023-04-26T21:35:34.481Z,10.74
2023-04-26T21:38:03.832Z,10.61
2023-04-26T21:40:32.244Z,10.63
2023-04-26T21:43:05.233Z,10.66
2023-04-26T21:45:35.988Z,10.63
2023-04-26T21:48:07.304Z,10.48
2023-04-26T21:50:37.059Z,10.49
2023-04-26T21:53:08.452Z,10.56
2023-04-26T21:55:38.196Z,10.63
2023-04-26T21:58:08.797Z,10.53
2023-04-26T22:00:39.081Z,10.62
2023-04-26T22:03:07.922Z,10.61
2023-04-26T22:05:38.104Z,10.56
2023-04-26T22:08:06.983Z,10.61
2023-04-26T22:10:36.968Z,10.51
2023-04-26T22:13:06.773Z,10.60
2023-04-26T22:15:38.814Z,10.62
2023-04-26T22:18:07.410Z,10.59
2023-04-26T22:20:36.730Z,10.51
2023-04-26T22:23:05.675Z,10.41
2023-04-26T22:25:34.316Z,10.52
2023-04-26T22:28:03.096Z,10.56
2023-04-26T22:30:31.941Z,10.58
2023-04-26T22:33:02.222Z,10.62
2023-04-26T22:35:32.086Z,10.63
2023-04-26T22:38:00.576Z,10.48
2023-04-26T22:40:30.419Z,10.54
2023-04-26T22:42:58.881Z,10.45
2023-04-26T22:45:28.451Z,10.52
2023-04-26T22:47:57.575Z,10.64
2023-04-26T22:50:27.749Z,10.50
2023-04-26T22:52:56.336Z,10.51
2023-04-26T22:55:25.045Z,10.37
2023-04-26T22:57:55.038Z,10.44
2023-04-26T23:00:25.717Z,10.42
2023-04-26T23:02:54.757Z,10.52
2023-04-26T23:05:24.209Z,10.22
2023-04-26T23:07:54.547Z,10.18
2023-04-26T23:10:25.946Z,10.28
2023-04-26T23:12:55.757Z,10.39
2023-04-26T23:15:25.858Z,10.37
2023-04-26T23:17:55.272Z,10.30
2023-04-26T23:20:24.153Z,10.33
2023-04-26T23:22:56.035Z,10.19
2023-04-26T23:25:24.417Z,10.23
2023-04-26T23:27:53.900Z,10.15
2023-04-26T23:30:22.640Z,10.26
2023-04-26T23:32:51.457Z,10.35
2023-04-26T23:35:21.179Z,10.26
2023-04-26T23:37:52.675Z,10.24
2023-04-26T23:40:22.669Z,10.18
2023-04-26T23:42:51.038Z,10.11
2023-04-26T23:45:19.833Z,10.24
2023-04-26T23:47:49.480Z,10.38
2023-04-26T23:50:18.117Z,10.17
2023-04-26T23:52:46.558Z,10.27
2023-04-26T23:55:17.203Z,10.31
2023-04-26T23:57:47.579Z,10.30
